SCR744 EDRY-EGLC
Flight info
| Callsign | SCR744 |
|---|---|
| Flight time | N/A |
| Altitude | 38000 |
| Route | OLGIL DCT IDOVI Z104 RITAX M624 BUB L608 COA L179 KEGIT L608 SUMUM |
| Aircraft | E55P/M-SBDFGHJ2RWY/LB2 |
Departure
| Time | 2026-04-17 08:58 |
|---|---|
| Airport | Speyer Airfield (EDRY) |
Arrival
| Time | N/A |
|---|---|
| Airport | London City Airport (EGLC) |
| Time | Latitude | Longitude | Altitude | Speed | Heading |
|---|---|---|---|---|---|
| 2026-04-17 08:48 | 49.30354 | 8.45453 | 311 ft | 0 kts | 254° |
| 2026-04-17 08:55 | 49.30350 | 8.45430 | 311 ft | 5 kts | 248° |
| 2026-04-17 08:55 | 49.30305 | 8.45386 | 312 ft | 10 kts | 187° |
| 2026-04-17 08:56 | 49.30272 | 8.45386 | 312 ft | 13 kts | 171° |
| 2026-04-17 08:56 | 49.30244 | 8.45394 | 312 ft | 14 kts | 166° |
| 2026-04-17 08:56 | 49.30122 | 8.45444 | 311 ft | 20 kts | 162° |
| 2026-04-17 08:56 | 49.29977 | 8.45503 | 311 ft | 21 kts | 162° |
| 2026-04-17 08:57 | 49.29827 | 8.45567 | 310 ft | 21 kts | 164° |
| 2026-04-17 08:57 | 49.29679 | 8.45624 | 310 ft | 21 kts | 163° |
| 2026-04-17 08:57 | 49.29600 | 8.45617 | 310 ft | 10 kts | 249° |
| 2026-04-17 08:57 | 49.29605 | 8.45532 | 310 ft | 0 kts | 345° |
| 2026-04-17 08:58 | 49.29650 | 8.45513 | 310 ft | 32 kts | 345° |
| 2026-04-17 08:58 | 49.30155 | 8.45307 | 312 ft | 110 kts | 345° |
| 2026-04-17 08:58 | 49.31061 | 8.44916 | 489 ft | 152 kts | 343° |
| 2026-04-17 08:58 | 49.32220 | 8.44338 | 1077 ft | 178 kts | 343° |
| 2026-04-17 08:59 | 49.33446 | 8.43737 | 1858 ft | 189 kts | 342° |
| 2026-04-17 08:59 | 49.34615 | 8.42684 | 2636 ft | 200 kts | 325° |
| 2026-04-17 08:59 | 49.35806 | 8.41401 | 3415 ft | 211 kts | 326° |
| 2026-04-17 08:59 | 49.37050 | 8.40075 | 4190 ft | 222 kts | 325° |
| 2026-04-17 09:00 | 49.38357 | 8.38683 | 4968 ft | 233 kts | 325° |
| 2026-04-17 09:00 | 49.39733 | 8.37217 | 5740 ft | 244 kts | 325° |
| 2026-04-17 09:00 | 49.41165 | 8.35690 | 6611 ft | 249 kts | 324° |
| 2026-04-17 09:00 | 49.42581 | 8.34182 | 7655 ft | 247 kts | 324° |
| 2026-04-17 09:01 | 49.43988 | 8.32680 | 8642 ft | 245 kts | 324° |
| 2026-04-17 09:01 | 49.45416 | 8.31154 | 9559 ft | 247 kts | 324° |
| 2026-04-17 09:01 | 49.46865 | 8.29608 | 10416 ft | 251 kts | 324° |
| 2026-04-17 09:01 | 49.48313 | 8.28058 | 11288 ft | 253 kts | 324° |
| 2026-04-17 09:02 | 49.49757 | 8.26511 | 12108 ft | 255 kts | 324° |
| 2026-04-17 09:02 | 49.51218 | 8.24948 | 12921 ft | 259 kts | 324° |
| 2026-04-17 09:02 | 49.52710 | 8.23352 | 13735 ft | 262 kts | 324° |
| 2026-04-17 09:02 | 49.54250 | 8.21702 | 14566 ft | 264 kts | 324° |
| 2026-04-17 09:03 | 49.55763 | 8.20079 | 15383 ft | 266 kts | 323° |
| 2026-04-17 09:03 | 49.57292 | 8.18437 | 16186 ft | 269 kts | 323° |
| 2026-04-17 09:03 | 49.58854 | 8.16756 | 16946 ft | 272 kts | 323° |
| 2026-04-17 09:03 | 49.60452 | 8.15037 | 17715 ft | 275 kts | 323° |
| 2026-04-17 09:04 | 49.62026 | 8.13344 | 18486 ft | 277 kts | 323° |
| 2026-04-17 09:04 | 49.63632 | 8.11612 | 19222 ft | 280 kts | 323° |
| 2026-04-17 09:04 | 49.65288 | 8.09827 | 19956 ft | 283 kts | 323° |
| 2026-04-17 09:04 | 49.66915 | 8.08072 | 20673 ft | 286 kts | 323° |
| 2026-04-17 09:05 | 49.68586 | 8.06266 | 21385 ft | 289 kts | 323° |
| 2026-04-17 09:05 | 49.70264 | 8.04453 | 22067 ft | 292 kts | 323° |
| 2026-04-17 09:05 | 49.71951 | 8.02629 | 22724 ft | 295 kts | 323° |
| 2026-04-17 09:05 | 49.73673 | 8.00764 | 23374 ft | 298 kts | 323° |
| 2026-04-17 09:06 | 49.75402 | 7.98892 | 24043 ft | 300 kts | 323° |
| 2026-04-17 09:06 | 49.77131 | 7.97017 | 24697 ft | 303 kts | 323° |
| 2026-04-17 09:06 | 49.78862 | 7.95138 | 25340 ft | 305 kts | 323° |
| 2026-04-17 09:06 | 49.80644 | 7.93201 | 25979 ft | 307 kts | 323° |
| 2026-04-17 09:07 | 49.82414 | 7.91274 | 26572 ft | 310 kts | 324° |
| 2026-04-17 09:07 | 49.84206 | 7.89326 | 27174 ft | 312 kts | 323° |
| 2026-04-17 09:07 | 49.86065 | 7.87301 | 27759 ft | 315 kts | 324° |
| 2026-04-17 09:07 | 49.87899 | 7.85298 | 28331 ft | 318 kts | 324° |
| 2026-04-17 09:08 | 49.89759 | 7.83269 | 28893 ft | 320 kts | 323° |
| 2026-04-17 09:08 | 49.91608 | 7.81250 | 29446 ft | 322 kts | 323° |
| 2026-04-17 09:08 | 49.93472 | 7.79210 | 29996 ft | 324 kts | 323° |
| 2026-04-17 09:08 | 49.95359 | 7.77144 | 30539 ft | 326 kts | 324° |
| 2026-04-17 09:09 | 49.97236 | 7.75088 | 31138 ft | 326 kts | 323° |
| 2026-04-17 09:09 | 49.98840 | 7.72599 | 31797 ft | 321 kts | 300° |
| 2026-04-17 09:09 | 49.99611 | 7.69305 | 32458 ft | 318 kts | 288° |
| 2026-04-17 09:09 | 50.00289 | 7.66024 | 33069 ft | 316 kts | 290° |
| 2026-04-17 09:10 | 50.01674 | 7.59309 | 34011 ft | 320 kts | 289° |
| 2026-04-17 09:10 | 50.02363 | 7.55941 | 34605 ft | 318 kts | 289° |
| 2026-04-17 09:10 | 50.03036 | 7.52647 | 35118 ft | 315 kts | 289° |
| 2026-04-17 09:11 | 50.03711 | 7.49341 | 35594 ft | 313 kts | 289° |
| 2026-04-17 09:11 | 50.04375 | 7.46079 | 36031 ft | 311 kts | 289° |
| 2026-04-17 09:11 | 50.05036 | 7.42830 | 36417 ft | 310 kts | 289° |
| 2026-04-17 09:11 | 50.05698 | 7.39573 | 36835 ft | 309 kts | 289° |
| 2026-04-17 09:12 | 50.06363 | 7.36295 | 37324 ft | 309 kts | 289° |
| 2026-04-17 09:12 | 50.07007 | 7.33109 | 37804 ft | 309 kts | 288° |
| 2026-04-17 09:12 | 50.07659 | 7.29873 | 38203 ft | 311 kts | 287° |
| 2026-04-17 09:12 | 50.07936 | 7.26440 | 38260 ft | 323 kts | 274° |
| 2026-04-17 09:13 | 50.08076 | 7.22840 | 38243 ft | 335 kts | 276° |
| 2026-04-17 09:13 | 50.08223 | 7.19071 | 38241 ft | 347 kts | 275° |
| 2026-04-17 09:13 | 50.09322 | 7.11420 | 38241 ft | 365 kts | 294° |
| 2026-04-17 09:14 | 50.11476 | 7.03851 | 38234 ft | 380 kts | 293° |
| 2026-04-17 09:14 | 50.13577 | 6.96101 | 38232 ft | 387 kts | 293° |
| 2026-04-17 09:15 | 50.15677 | 6.88285 | 38228 ft | 393 kts | 293° |
| 2026-04-17 09:15 | 50.17819 | 6.80276 | 38227 ft | 398 kts | 293° |
| 2026-04-17 09:16 | 50.19999 | 6.72100 | 38222 ft | 402 kts | 293° |
| 2026-04-17 09:16 | 50.22201 | 6.63807 | 38208 ft | 406 kts | 293° |
| 2026-04-17 09:17 | 50.24411 | 6.55458 | 38212 ft | 408 kts | 293° |
| 2026-04-17 09:17 | 50.26614 | 6.47108 | 38203 ft | 407 kts | 293° |
| 2026-04-17 09:18 | 50.28809 | 6.38755 | 38204 ft | 406 kts | 292° |
| 2026-04-17 09:18 | 50.30953 | 6.30569 | 38211 ft | 403 kts | 292° |
| 2026-04-17 09:19 | 50.33088 | 6.22380 | 38210 ft | 401 kts | 292° |
| 2026-04-17 09:19 | 50.35216 | 6.14194 | 38212 ft | 401 kts | 292° |
| 2026-04-17 09:20 | 50.37349 | 6.05958 | 38211 ft | 404 kts | 292° |
| 2026-04-17 09:20 | 50.39494 | 5.97653 | 38209 ft | 404 kts | 292° |
| 2026-04-17 09:21 | 50.41644 | 5.89283 | 38207 ft | 403 kts | 292° |
| 2026-04-17 09:21 | 50.43750 | 5.81061 | 38212 ft | 402 kts | 292° |
| 2026-04-17 09:22 | 50.45869 | 5.72766 | 38214 ft | 403 kts | 292° |
| 2026-04-17 09:22 | 50.47997 | 5.64395 | 38217 ft | 404 kts | 292° |
| 2026-04-17 09:23 | 50.50096 | 5.56112 | 38220 ft | 404 kts | 292° |
| 2026-04-17 09:23 | 50.52222 | 5.47691 | 38216 ft | 402 kts | 291° |
| 2026-04-17 09:24 | 50.54315 | 5.39363 | 38216 ft | 401 kts | 291° |
| 2026-04-17 09:24 | 50.56385 | 5.31097 | 38222 ft | 402 kts | 291° |
| 2026-04-17 09:25 | 50.58431 | 5.22906 | 38222 ft | 404 kts | 291° |
| 2026-04-17 09:25 | 50.60511 | 5.14545 | 38219 ft | 403 kts | 291° |
| 2026-04-17 09:26 | 50.62539 | 5.06359 | 38216 ft | 402 kts | 291° |